Copmanthorpe, United Kingdom
Current Conditions -  °F | °C
As of 3:50 AM on Monday 22 Dec 2014 (Local Time) from EGXU Reporting Station
Overcast Overcast  
Wind Chill: 57°   Ceiling: 2200
Heat Index: 57°   Visibility: 6mi
Dew Point: 57°   Wind: 28mph
Humidity: 100%   Direction: 250°WSW
Pressure: 29.71"   Gusts: 45mph
Location:  53.91°N, 1.14°W
Report Text: EGXU 220350Z AUTO 25024G39KT 9999 // OVC022/// 14/14 Q1006
Loading
Personal Weather Stations






























Interactive Weather Map New forecast layout! Learn more

10-Day Weather Forecast

Advertisements
Track Severe Weather on mobile